Time;durP1;ratioP1;P1;durP2;ratioP2;P2;SDS_P1;SDS_P2;PMS_P1;PMS_P2;Temp;Humidity;BMP_temperature;BMP_pressure;BME280_temperature;BME280_humidity;BME280_pressure;Samples;Min_cycle;Max_cycle;Signal;HPM_P1;HPM_P2
2023/03/12 00:01:18;;;;;;;3.70;2.70;;;;;;;7.14;100.00;97171.35;105835;1260;74456;-82
2023/03/12 00:03:47;;;;;;;5.10;2.90;;;;;;;7.07;100.00;97175.23;105630;1257;69494;-80
2023/03/12 00:06:16;;;;;;;6.00;4.10;;;;;;;7.04;100.00;97165.02;105851;1260;72262;-81
2023/03/12 00:08:47;;;;;;;3.00;2.80;;;;;;;7.01;100.00;97168.36;105940;1255;61726;-80
2023/03/12 00:11:17;;;;;;;3.60;3.30;;;;;;;6.96;100.00;97174.63;105603;1258;61064;-79
2023/03/12 00:13:50;;;;;;;3.10;2.80;;;;;;;6.91;100.00;97165.93;105681;1255;72518;-79
2023/03/12 00:16:19;;;;;;;3.70;3.50;;;;;;;6.87;100.00;97178.33;105695;1261;68611;-79
2023/03/12 00:18:49;;;;;;;3.20;2.90;;;;;;;6.82;100.00;97187.01;105705;1256;72656;-78
2023/03/12 00:21:17;;;;;;;3.40;3.10;;;;;;;6.78;100.00;97189.23;105518;1256;62011;-78
2023/03/12 00:23:46;;;;;;;4.60;4.30;;;;;;;6.76;100.00;97204.05;105668;1257;60984;-79
2023/03/12 00:26:17;;;;;;;4.60;4.20;;;;;;;6.69;100.00;97199.45;105682;1257;74313;-79
2023/03/12 00:28:46;;;;;;;5.00;4.60;;;;;;;6.59;100.00;97201.50;105593;1256;67963;-80
2023/03/12 00:31:20;;;;;;;4.80;4.40;;;;;;;6.52;100.00;97201.56;105775;1256;73944;-79
2023/03/12 00:33:49;;;;;;;5.50;4.90;;;;;;;6.48;100.00;97192.80;105842;1256;61358;-81
2023/03/12 00:36:18;;;;;;;5.30;4.90;;;;;;;6.45;100.00;97198.02;105575;1257;61307;-82
2023/03/12 00:38:46;;;;;;;5.60;5.10;;;;;;;6.40;100.00;97194.39;105677;1262;75721;-80
2023/03/12 00:41:14;;;;;;;6.00;5.40;;;;;;;6.35;100.00;97212.23;105436;1256;68001;-80
2023/03/12 00:43:43;;;;;;;5.50;5.00;;;;;;;6.30;100.00;97187.58;105708;1256;71810;-81
2023/03/12 00:46:11;;;;;;;4.80;4.40;;;;;;;6.26;100.00;97181.84;105516;1261;62460;-79
2023/03/12 00:48:39;;;;;;;5.60;5.10;;;;;;;6.24;100.00;97187.56;105415;1256;60509;-80
2023/03/12 00:51:08;;;;;;;5.00;4.60;;;;;;;6.21;100.00;97197.96;105537;1256;73650;-79
2023/03/12 00:53:36;;;;;;;5.00;4.60;;;;;;;6.16;100.00;97198.48;105636;1256;68088;-80
2023/03/12 00:56:04;;;;;;;5.60;5.10;;;;;;;6.11;100.00;97197.41;105785;1259;71303;-80
2023/03/12 00:58:33;;;;;;;4.30;4.00;;;;;;;6.05;100.00;97201.05;105556;1254;63486;-79
2023/03/12 01:01:01;;;;;;;5.00;4.70;;;;;;;6.00;100.00;97194.00;105717;1260;60514;-79
2023/03/12 01:03:30;;;;;;;5.80;4.50;;;;;;;5.94;100.00;97192.52;105808;1256;73431;-80
2023/03/12 01:05:59;;;;;;;6.00;4.40;;;;;;;5.93;100.00;97189.75;105793;1258;66850;-81
2023/03/12 01:08:29;;;;;;;5.20;3.60;;;;;;;5.90;100.00;97187.48;105825;1260;73330;-82
2023/03/12 01:10:57;;;;;;;5.10;3.50;;;;;;;5.85;100.00;97192.36;105681;1261;62511;-82
2023/03/12 01:13:25;;;;;;;3.20;3.00;;;;;;;5.80;100.00;97192.13;105581;1260;61587;-75
2023/03/12 01:15:53;;;;;;;2.70;2.50;;;;;;;5.78;100.00;97202.27;105676;1254;75675;-78
2023/03/12 01:18:22;;;;;;;2.30;2.00;;;;;;;5.72;100.00;97197.73;105627;1256;68746;-76
2023/03/12 01:20:50;;;;;;;2.00;1.90;;;;;;;5.65;100.00;97205.48;105470;1256;73570;-74
2023/03/12 01:23:18;;;;;;;2.00;1.90;;;;;;;5.59;100.00;97216.02;105762;1256;62302;-75
2023/03/12 01:25:46;;;;;;;1.70;1.60;;;;;;;5.53;100.00;97208.92;105495;1256;61037;-77
2023/03/12 01:28:14;;;;;;;3.70;1.60;;;;;;;5.48;100.00;97221.80;105784;1258;74435;-74
2023/03/12 01:30:43;;;;;;;1.90;1.80;;;;;;;5.46;100.00;97214.73;105799;1258;68821;-77
2023/03/12 01:33:12;;;;;;;2.50;2.20;;;;;;;5.46;100.00;97226.88;105729;1256;72414;-75
2023/03/12 01:35:40;;;;;;;1.80;1.70;;;;;;;5.48;100.00;97223.98;105854;1254;61004;-74
2023/03/12 01:38:13;;;;;;;1.70;1.60;;;;;;;5.46;100.00;97240.76;105730;1256;61912;-74
2023/03/12 01:40:42;;;;;;;1.80;1.60;;;;;;;5.40;100.00;97244.14;105836;1257;72522;-74
2023/03/12 01:43:23;;;;;;;1.50;1.40;;;;;;;5.35;100.00;97247.70;105638;1256;68983;-74
2023/03/12 01:46:13;;;;;;;1.70;1.60;;;;;;;5.29;100.00;97249.16;105817;1258;72340;-76
2023/03/12 01:48:47;;;;;;;1.50;1.40;;;;;;;5.27;100.00;97257.70;105689;1256;60486;-71
2023/03/12 01:51:16;;;;;;;1.90;1.80;;;;;;;5.21;100.00;97265.09;105614;1260;61105;-73
2023/03/12 01:53:46;;;;;;;2.60;1.40;;;;;;;5.14;100.00;97286.34;105677;1260;73798;-77
2023/03/12 01:56:16;;;;;;;1.80;1.40;;;;;;;5.08;100.00;97271.50;105667;1254;67908;-78
2023/03/12 01:58:47;;;;;;;1.20;1.20;;;;;;;5.02;100.00;97289.86;105730;1260;71484;-78
2023/03/12 02:01:16;;;;;;;1.70;1.30;;;;;;;4.99;100.00;97283.73;105784;1256;60549;-80
2023/03/12 02:03:46;;;;;;;1.40;1.30;;;;;;;4.98;100.00;97304.63;105525;1255;61882;-76
2023/03/12 02:06:15;;;;;;;1.20;1.10;;;;;;;4.91;100.00;97318.16;105564;1262;74179;-77
2023/03/12 02:08:44;;;;;;;1.30;1.30;;;;;;;4.79;100.00;97328.60;105877;1254;67271;-78
2023/03/12 02:11:13;;;;;;;1.10;1.10;;;;;;;4.66;100.00;97326.13;105543;1261;73583;-77
2023/03/12 02:13:42;;;;;;;1.20;1.20;;;;;;;4.56;100.00;97327.95;105728;1255;62679;-78
2023/03/12 02:16:11;;;;;;;0.90;0.90;;;;;;;4.51;100.00;97334.81;105823;1254;60501;-74
2023/03/12 02:18:39;;;;;;;1.50;1.40;;;;;;;4.44;100.00;97355.90;105936;1257;74934;-74
2023/03/12 02:21:17;;;;;;;1.60;1.50;;;;;;;4.35;100.00;97347.08;105825;1261;67065;-79
2023/03/12 02:23:54;;;;;;;1.30;1.20;;;;;;;4.26;100.00;97342.55;105774;1256;74526;-80
2023/03/12 02:26:23;;;;;;;1.10;1.10;;;;;;;4.18;100.00;97360.80;105716;1256;62250;-76
2023/03/12 02:28:51;;;;;;;1.50;1.40;;;;;;;4.12;100.00;97375.53;105752;1257;60509;-79
2023/03/12 02:31:23;;;;;;;1.50;1.20;;;;;;;4.03;100.00;97378.77;105547;1261;75683;-77
2023/03/12 02:33:54;;;;;;;1.20;1.20;;;;;;;3.90;100.00;97396.58;105845;1255;68575;-79
2023/03/12 02:36:23;;;;;;;1.40;1.30;;;;;;;3.78;100.00;97404.67;105632;1256;73028;-80
2023/03/12 02:38:52;;;;;;;1.60;1.50;;;;;;;3.64;100.00;97410.23;105931;1256;60941;-80
2023/03/12 02:41:40;;;;;;;1.30;1.20;;;;;;;3.42;100.00;97436.38;105572;1256;60435;-78
2023/03/12 02:44:17;;;;;;;1.30;1.20;;;;;;;3.16;100.00;97428.92;105795;1258;74024;-77
2023/03/12 02:46:50;;;;;;;1.60;1.50;;;;;;;2.96;100.00;97457.86;105924;1256;69990;-80
2023/03/12 02:49:19;;;;;;;1.50;1.20;;;;;;;2.80;100.00;97423.17;105729;1256;72290;-78
2023/03/12 02:51:47;;;;;;;1.60;1.30;;;;;;;2.70;100.00;97423.43;105651;1261;61431;-77
2023/03/12 02:54:16;;;;;;;1.10;1.10;;;;;;;2.60;100.00;97432.65;105464;1262;61336;-79
2023/03/12 02:56:45;;;;;;;2.10;2.00;;;;;;;2.49;100.00;97412.30;106026;1253;75753;-77
2023/03/12 02:59:14;;;;;;;1.50;1.50;;;;;;;2.39;100.00;97442.19;105734;1254;69231;-76
2023/03/12 03:01:43;;;;;;;1.40;1.30;;;;;;;2.28;100.00;97426.77;105769;1257;73357;-75
2023/03/12 03:04:12;;;;;;;1.30;1.20;;;;;;;2.19;100.00;97423.45;105501;1256;61244;-75
2023/03/12 03:06:41;;;;;;;1.70;1.60;;;;;;;2.13;100.00;97425.19;105528;1255;60581;-78
2023/03/12 03:09:09;;;;;;;3.60;2.70;;;;;;;2.07;100.00;97443.74;105721;1261;74098;-76
2023/03/12 03:11:38;;;;;;;3.30;2.70;;;;;;;2.02;100.00;97440.67;105833;1258;66170;-75
2023/03/12 03:14:06;;;;;;;3.50;3.10;;;;;;;1.94;100.00;97450.67;105819;1256;72182;-76
2023/03/12 03:16:35;;;;;;;1.80;1.70;;;;;;;1.85;100.00;97462.87;105813;1254;63137;-75
2023/03/12 03:19:06;;;;;;;2.30;2.10;;;;;;;1.76;100.00;97447.88;106037;1254;60832;-75
2023/03/12 03:21:34;;;;;;;2.70;1.80;;;;;;;1.69;100.00;97449.92;105918;1257;73489;-77
2023/03/12 03:24:04;;;;;;;2.40;2.20;;;;;;;1.64;100.00;97466.02;105699;1256;68950;-76
2023/03/12 03:26:33;;;;;;;2.10;2.00;;;;;;;1.58;100.00;97454.76;105892;1257;74510;-75
2023/03/12 03:29:02;;;;;;;2.40;2.30;;;;;;;1.47;100.00;97472.91;105782;1254;63384;-75
2023/03/12 03:31:32;;;;;;;2.00;1.90;;;;;;;1.38;100.00;97477.45;105692;1262;62253;-73
2023/03/12 03:34:00;;;;;;;2.50;2.30;;;;;;;1.33;100.00;97478.06;105663;1259;74904;-75
2023/03/12 03:36:28;;;;;;;2.30;2.20;;;;;;;1.29;100.00;97471.83;106011;1254;68856;-74
2023/03/12 03:39:16;;;;;;;2.00;1.80;;;;;;;1.25;100.00;97454.14;105881;1258;72444;-74
2023/03/12 03:41:46;;;;;;;2.40;2.30;;;;;;;1.21;100.00;97470.73;105567;1256;60512;-78
2023/03/12 03:44:15;;;;;;;6.40;3.90;;;;;;;1.18;100.00;97469.88;105942;1258;60315;-78
2023/03/12 03:46:43;;;;;;;2.20;2.10;;;;;;;1.14;100.00;97492.26;105927;1255;75412;-78
2023/03/12 03:49:12;;;;;;;2.60;2.40;;;;;;;1.11;100.00;97518.64;105807;1261;66979;-77
2023/03/12 03:51:41;;;;;;;2.80;2.60;;;;;;;1.05;100.00;97518.50;105812;1255;72463;-72
2023/03/12 03:54:11;;;;;;;3.10;2.90;;;;;;;0.99;100.00;97535.50;105832;1258;60463;-73
2023/03/12 03:56:41;;;;;;;2.50;2.30;;;;;;;0.94;100.00;97532.71;105829;1255;60512;-76
2023/03/12 03:59:12;;;;;;;2.80;2.60;;;;;;;0.89;100.00;97522.85;105652;1259;74783;-74
2023/03/12 04:01:42;;;;;;;3.40;3.20;;;;;;;0.85;100.00;97527.30;105749;1256;69819;-75
2023/03/12 04:04:10;;;;;;;3.20;3.00;;;;;;;0.83;100.00;97528.85;105864;1258;74276;-76
2023/03/12 04:06:44;;;;;;;2.50;2.30;;;;;;;0.82;100.00;97534.44;105783;1256;61256;-75
2023/03/12 04:09:14;;;;;;;2.30;2.20;;;;;;;0.80;100.00;97572.61;105906;1256;61124;-74
2023/03/12 04:11:44;;;;;;;3.50;3.30;;;;;;;0.75;100.00;97590.50;105882;1258;74653;-76
2023/03/12 04:14:12;;;;;;;3.40;3.00;;;;;;;0.70;100.00;97575.61;105781;1256;69066;-74
2023/03/12 04:16:46;;;;;;;2.70;2.50;;;;;;;0.68;100.00;97559.81;105805;1261;73835;-76
2023/03/12 04:19:14;;;;;;;2.60;2.40;;;;;;;0.66;100.00;97577.94;105775;1255;60927;-73
2023/03/12 04:21:42;;;;;;;3.50;2.90;;;;;;;0.65;100.00;97569.17;105842;1258;60364;-73
2023/03/12 04:24:14;;;;;;;3.20;2.80;;;;;;;0.63;100.00;97569.29;106015;1258;75679;-73
2023/03/12 04:26:42;;;;;;;3.10;2.70;;;;;;;0.62;100.00;97580.23;105781;1257;70800;-72
2023/03/12 04:29:10;;;;;;;2.60;2.40;;;;;;;0.59;100.00;97591.70;105626;1259;71306;-71
2023/03/12 04:31:40;;;;;;;2.80;2.60;;;;;;;0.57;100.00;97614.30;105730;1256;61028;-72
2023/03/12 04:34:09;;;;;;;3.90;2.10;;;;;;;0.53;100.00;97601.12;105856;1256;60475;-70
2023/03/12 04:36:40;;;;;;;2.60;2.40;;;;;;;0.49;100.00;97598.61;105577;1256;74093;-72
2023/03/12 04:39:09;;;;;;;2.70;2.50;;;;;;;0.44;100.00;97605.14;105777;1255;68657;-73
2023/03/12 04:41:38;;;;;;;3.00;2.80;;;;;;;0.43;100.00;97619.13;105845;1257;73710;-75
2023/03/12 04:44:13;;;;;;;4.30;2.80;;;;;;;0.40;100.00;97621.34;105776;1256;63387;-73
2023/03/12 04:46:41;;;;;;;4.90;3.20;;;;;;;0.37;100.00;97624.57;105684;1261;60457;-74
2023/03/12 04:49:12;;;;;;;3.60;3.30;;;;;;;0.34;100.00;97624.61;105749;1261;74210;-70
2023/03/12 04:51:40;;;;;;;4.50;3.30;;;;;;;0.31;100.00;97620.91;105878;1259;67151;-71
2023/03/12 04:54:11;;;;;;;4.00;3.30;;;;;;;0.29;100.00;97627.90;105827;1256;72705;-70
2023/03/12 04:56:40;;;;;;;3.80;3.40;;;;;;;0.28;100.00;97633.11;105856;1256;62230;-74
2023/03/12 04:59:09;;;;;;;3.50;3.20;;;;;;;0.27;100.00;97638.98;105431;1261;60383;-76
2023/03/12 05:01:42;;;;;;;3.60;3.30;;;;;;;0.25;100.00;97641.77;105646;1256;74382;-70
2023/03/12 05:04:18;;;;;;;3.20;2.90;;;;;;;0.21;100.00;97651.05;105871;1256;68354;-74
2023/03/12 05:06:47;;;;;;;3.80;3.50;;;;;;;0.18;100.00;97667.16;105569;1257;74419;-74
2023/03/12 05:09:15;;;;;;;3.10;2.90;;;;;;;0.14;100.00;97678.18;105678;1256;60544;-76
2023/03/12 05:11:43;;;;;;;3.70;3.40;;;;;;;0.11;100.00;97683.65;105491;1257;60877;-74
2023/03/12 05:14:15;;;;;;;4.20;3.80;;;;;;;0.09;100.00;97695.94;105640;1260;74754;-74
2023/03/12 05:16:43;;;;;;;3.90;3.60;;;;;;;0.08;100.00;97690.94;105546;1256;69500;-74
2023/03/12 05:19:18;;;;;;;4.20;3.70;;;;;;;0.06;100.00;97701.79;105555;1255;71497;-74
2023/03/12 05:21:46;;;;;;;3.40;3.10;;;;;;;0.01;100.00;97700.04;105657;1255;62898;-72
2023/03/12 05:24:15;;;;;;;2.90;2.70;;;;;;;-0.01;100.00;97699.85;105566;1256;61873;-73
2023/03/12 05:26:44;;;;;;;4.30;3.20;;;;;;;-0.03;100.00;97720.36;105739;1254;74807;-73
2023/03/12 05:29:17;;;;;;;3.60;3.30;;;;;;;-0.03;100.00;97724.14;105657;1256;68177;-76
2023/03/12 05:31:46;;;;;;;3.80;3.50;;;;;;;-0.04;100.00;97724.77;105777;1256;73532;-75
2023/03/12 05:34:15;;;;;;;5.20;3.30;;;;;;;-0.04;100.00;97735.02;105688;1255;62674;-70
2023/03/12 05:36:44;;;;;;;4.90;3.60;;;;;;;-0.04;100.00;97756.42;105646;1256;61854;-72
2023/03/12 05:39:14;;;;;;;3.30;2.90;;;;;;;-0.03;100.00;97767.23;105723;1258;76150;-77
2023/03/12 05:41:43;;;;;;;3.40;3.00;;;;;;;-0.01;100.00;97769.38;105554;1256;67838;-73
2023/03/12 05:44:18;;;;;;;4.20;3.90;;;;;;;-0.01;100.00;97780.86;105678;1258;73442;-75
2023/03/12 05:46:51;;;;;;;4.10;3.70;;;;;;;-0.02;100.00;97786.89;105504;1256;60346;-77
2023/03/12 05:49:25;;;;;;;3.20;2.90;;;;;;;-0.06;100.00;97798.05;105573;1256;61247;-78
2023/03/12 05:51:53;;;;;;;3.40;3.10;;;;;;;-0.09;100.00;97798.46;105546;1257;73261;-77
2023/03/12 05:54:23;;;;;;;3.10;2.90;;;;;;;-0.12;100.00;97827.45;105511;1261;68438;-80
2023/03/12 05:56:55;;;;;;;3.30;3.00;;;;;;;-0.11;100.00;97810.09;105832;1256;73581;-79
2023/03/12 05:59:25;;;;;;;4.50;3.50;;;;;;;-0.13;100.00;97814.33;105602;1256;60438;-79
2023/03/12 06:01:54;;;;;;;3.50;3.20;;;;;;;-0.14;100.00;97817.89;105645;1263;60544;-78
2023/03/12 06:04:23;;;;;;;3.70;3.30;;;;;;;-0.17;100.00;97821.46;105669;1264;75664;-79
2023/03/12 06:06:53;;;;;;;2.90;2.70;;;;;;;-0.17;100.00;97829.40;105637;1262;68770;-74
2023/03/12 06:09:25;;;;;;;4.90;3.20;;;;;;;-0.16;100.00;97848.08;105595;1256;73940;-76
2023/03/12 06:11:56;;;;;;;3.70;3.10;;;;;;;-0.17;100.00;97855.16;105573;1256;60542;-77
2023/03/12 06:14:26;;;;;;;3.50;3.20;;;;;;;-0.18;100.00;97866.55;105503;1256;61737;-77
2023/03/12 06:17:00;;;;;;;3.70;3.10;;;;;;;-0.18;100.00;97857.40;106105;1256;74688;-80
2023/03/12 06:19:43;;;;;;;3.00;2.80;;;;;;;-0.18;100.00;97869.81;106087;1256;69229;-77
2023/03/12 06:23:08;;;;;;;3.80;3.40;;;;;;;-0.17;100.00;97882.96;106219;1258;72167;-78
2023/03/12 06:25:38;;;;;;;3.30;3.00;;;;;;;-0.16;100.00;97894.81;105575;1256;60640;-77
2023/03/12 06:28:09;;;;;;;4.40;3.80;;;;;;;-0.15;100.00;97895.00;105604;1263;61124;-76
2023/03/12 06:30:41;;;;;;;3.20;2.90;;;;;;;-0.15;100.00;97907.90;105809;1254;73385;-79
2023/03/12 06:33:10;;;;;;;3.10;2.90;;;;;;;-0.17;100.00;97912.73;105633;1256;68494;-78
2023/03/12 06:35:45;;;;;;;3.90;3.00;;;;;;;-0.16;100.00;97909.45;105842;1255;72204;-80
2023/03/12 06:38:15;;;;;;;4.40;3.50;;;;;;;-0.16;100.00;97915.54;105716;1256;60489;-79
2023/03/12 06:40:55;;;;;;;3.60;3.30;;;;;;;-0.15;100.00;97926.75;105380;1256;1002946;-78
2023/03/12 06:43:25;;;;;;;2.60;2.40;;;;;;;-0.16;100.00;97926.52;105920;1261;73901;-76
2023/03/12 06:45:56;;;;;;;5.20;2.80;;;;;;;-0.19;100.00;97946.77;105871;1256;68883;-83
2023/03/12 06:48:27;;;;;;;2.60;2.40;;;;;;;-0.20;100.00;97948.39;106914;1254;71823;-79
2023/03/12 06:51:04;;;;;;;3.10;2.80;;;;;;;-0.23;100.00;97961.83;106579;1256;61982;-76
2023/03/12 06:53:37;;;;;;;3.80;3.40;;;;;;;-0.27;100.00;97965.22;106190;1264;62330;-79
2023/03/12 06:56:13;;;;;;;2.40;2.20;;;;;;;-0.30;100.00;97967.66;106396;1256;74381;-81
2023/03/12 06:59:09;;;;;;;2.50;2.30;;;;;;;-0.33;100.00;97989.55;106604;1256;70129;-83
2023/03/12 07:01:41;;;;;;;2.80;2.50;;;;;;;-0.33;100.00;98003.48;106490;1256;74430;-76
2023/03/12 07:04:58;;;;;;;4.30;3.40;;;;;;;-0.33;100.00;98018.95;106560;1256;63040;-78
2023/03/12 07:07:31;;;;;;;2.30;2.10;;;;;;;-0.31;100.00;98017.27;106706;1256;60466;-77
2023/03/12 07:10:06;;;;;;;3.70;2.60;;;;;;;-0.30;100.00;98025.31;106579;1257;75473;-79
2023/03/12 07:12:41;;;;;;;4.50;2.10;;;;;;;-0.29;100.00;98034.35;106846;1254;68731;-77
2023/03/12 07:15:12;;;;;;;2.70;2.30;;;;;;;-0.25;100.00;98032.98;106830;1261;73436;-77
2023/03/12 07:17:44;;;;;;;4.10;3.10;;;;;;;-0.21;100.00;98050.20;106501;1256;61757;-72
2023/03/12 07:20:12;;;;;;;2.90;2.70;;;;;;;-0.19;100.00;98061.04;106626;1256;59228;-75
2023/03/12 07:22:43;;;;;;;2.60;2.40;;;;;;;-0.18;100.00;98061.70;106670;1259;74116;-74
2023/03/12 07:25:13;;;;;;;2.90;2.60;;;;;;;-0.16;100.00;98070.66;106663;1256;69224;-77
2023/03/12 07:27:53;;;;;;;2.50;2.00;;;;;;;-0.14;100.00;98071.20;106659;1257;74062;-83
2023/03/12 07:30:39;;;;;;;2.70;2.50;;;;;;;-0.13;100.00;98081.39;106977;1255;61685;-79
2023/03/12 07:33:22;;;;;;;4.00;3.70;;;;;;;-0.13;100.00;98099.84;107204;1255;62246;-81
2023/03/12 07:35:54;;;;;;;3.10;2.20;;;;;;;-0.20;100.00;98104.92;106626;1261;75165;-76
2023/03/12 07:38:24;;;;;;;2.70;2.50;;;;;;;-0.23;100.00;98106.73;106929;1254;68557;-76
2023/03/12 07:47:17;;;;;;;2.90;2.60;;;;;;;-0.24;100.00;98125.65;104279;1292;600786;-87
2023/03/12 07:49:56;;;;;;;3.60;3.10;;;;;;;-0.28;100.00;98145.28;106355;1270;61464;-78
2023/03/12 07:52:45;;;;;;;2.70;2.50;;;;;;;-0.31;100.00;98150.80;105966;1266;62445;-77
2023/03/12 07:55:18;;;;;;;3.60;2.30;;;;;;;-0.31;100.00;98150.42;106023;1266;72472;-77
2023/03/12 07:57:55;;;;;;;3.30;2.90;;;;;;;-0.30;100.00;98157.17;105891;1267;68286;-80
2023/03/12 08:00:28;;;;;;;3.60;2.70;;;;;;;-0.28;100.00;98184.21;105493;1266;713561;-77
2023/03/12 08:03:05;;;;;;;2.60;2.40;;;;;;;-0.32;100.00;98203.90;105726;1267;61625;-73
2023/03/12 08:06:02;;;;;;;2.70;2.20;;;;;;;-0.33;100.00;98200.83;106426;1258;61659;-74
2023/03/12 08:08:31;;;;;;;2.60;2.40;;;;;;;-0.33;100.00;98190.88;106768;1257;73791;-73
2023/03/12 08:11:03;;;;;;;4.20;2.60;;;;;;;-0.32;100.00;98205.94;106278;1260;66696;-72
2023/03/12 08:13:33;;;;;;;3.20;2.50;;;;;;;-0.29;100.00;98213.64;106454;1260;72088;-76
2023/03/12 08:16:03;;;;;;;3.40;2.60;;;;;;;-0.27;100.00;98219.55;106694;1257;59939;-79
2023/03/12 08:18:37;;;;;;;3.40;2.30;;;;;;;-0.25;100.00;98219.50;106297;1260;62087;-75
2023/03/12 08:21:07;;;;;;;3.20;2.70;;;;;;;-0.22;100.00;98215.52;106299;1263;73686;-73
2023/03/12 08:23:40;;;;;;;3.30;2.60;;;;;;;-0.16;100.00;98224.98;106586;1253;69333;-74
2023/03/12 08:26:15;;;;;;;2.90;2.20;;;;;;;-0.07;100.00;98223.30;106968;1254;74206;-75
2023/03/12 08:28:46;;;;;;;2.80;2.30;;;;;;;0.03;100.00;98214.60;107136;1254;59752;-74
2023/03/12 08:31:15;;;;;;;4.60;2.80;;;;;;;0.14;100.00;98235.02;106820;1259;60261;-75
2023/03/12 08:33:47;;;;;;;7.00;3.70;;;;;;;0.24;100.00;98233.12;106863;1259;72979;-76
2023/03/12 08:36:15;;;;;;;3.00;2.30;;;;;;;0.33;100.00;98232.74;106668;1255;68557;-74
2023/03/12 08:38:50;;;;;;;3.90;2.30;;;;;;;0.43;100.00;98239.11;107025;1254;73132;-76
2023/03/12 08:41:20;;;;;;;2.30;2.10;;;;;;;0.52;100.00;98248.69;106835;1254;61096;-80
2023/03/12 08:43:51;;;;;;;4.70;2.60;;;;;;;0.60;100.00;98264.67;107099;1259;60688;-76
2023/03/12 08:46:19;;;;;;;2.50;2.30;;;;;;;0.62;99.49;98272.14;106809;1263;74465;-75
2023/03/12 08:48:48;;;;;;;3.50;1.90;;;;;;;0.59;96.86;98289.38;107105;1254;68175;-80
2023/03/12 08:51:19;;;;;;;3.70;2.00;;;;;;;0.61;96.79;98271.91;106720;1255;74150;-79
2023/03/12 08:53:47;;;;;;;2.80;2.30;;;;;;;0.62;96.10;98287.92;106929;1257;59646;-76
2023/03/12 08:56:16;;;;;;;3.50;2.80;;;;;;;0.60;93.84;98308.55;107111;1254;61971;-82
2023/03/12 08:58:45;;;;;;;8.40;3.00;;;;;;;0.57;92.74;98313.89;106805;1254;75090;-74
2023/03/12 09:01:14;;;;;;;3.10;2.10;;;;;;;0.50;90.08;98315.88;106821;1254;66717;-77
2023/03/12 09:03:44;;;;;;;2.70;1.70;;;;;;;0.45;89.80;98306.66;106914;1256;74267;-80
2023/03/12 09:06:15;;;;;;;6.10;2.60;;;;;;;0.44;90.20;98321.06;106165;1261;1003437;-78
2023/03/12 09:08:50;;;;;;;4.00;2.50;;;;;;;0.44;89.92;98316.41;107203;1262;59811;-86
2023/03/12 09:11:20;;;;;;;4.10;2.90;;;;;;;0.44;89.41;98330.87;106197;1254;1003421;-75
2023/03/12 09:13:49;;;;;;;4.20;2.30;;;;;;;0.42;87.71;98339.65;106955;1259;68261;-74
2023/03/12 09:16:42;;;;;;;2.60;2.00;;;;;;;0.44;88.63;98339.21;106944;1254;72602;-75
2023/03/12 09:19:10;;;;;;;1.70;1.60;;;;;;;0.46;88.16;98357.96;107016;1254;61062;-78
2023/03/12 09:21:47;;;;;;;4.00;2.50;;;;;;;0.51;87.93;98345.98;106976;1260;61980;-75
2023/03/12 09:24:23;;;;;;;4.40;2.50;;;;;;;0.56;87.27;98355.09;107083;1259;72393;-79
2023/03/12 09:27:04;;;;;;;5.10;2.00;;;;;;;0.62;86.61;98361.98;106876;1255;68119;-74
2023/03/12 09:29:33;;;;;;;3.80;2.40;;;;;;;0.67;85.71;98374.03;106750;1258;74391;-78
2023/03/12 09:32:03;;;;;;;4.90;2.90;;;;;;;0.70;86.12;98380.64;106582;1257;60707;-75
2023/03/12 09:34:34;;;;;;;4.90;2.70;;;;;;;0.74;86.33;98386.09;106759;1257;60118;-74
2023/03/12 09:37:03;;;;;;;3.20;1.70;;;;;;;0.77;86.04;98393.39;106697;1259;73538;-74
2023/03/12 09:39:32;;;;;;;4.70;2.20;;;;;;;0.77;84.40;98396.67;106304;1261;69949;-74
2023/03/12 09:42:02;;;;;;;2.90;2.50;;;;;;;0.80;84.10;98417.14;106479;1255;72254;-75
2023/03/12 09:44:34;;;;;;;4.70;2.40;;;;;;;0.82;83.34;98413.33;106842;1254;60007;-75
2023/03/12 09:47:30;;;;;;;2.70;2.30;;;;;;;0.82;83.44;98420.45;106811;1254;60824;-76
2023/03/12 09:50:04;;;;;;;3.20;2.50;;;;;;;0.84;83.36;98433.98;106523;1255;72361;-79
2023/03/12 09:52:42;;;;;;;3.10;2.80;;;;;;;0.83;82.47;98437.45;106746;1257;68321;-75
2023/03/12 09:55:15;;;;;;;6.40;2.40;;;;;;;0.84;82.59;98456.21;107235;1259;72410;-77
2023/03/12 09:57:44;;;;;;;3.60;2.20;;;;;;;0.88;82.89;98447.27;106904;1253;59613;-80
2023/03/12 10:00:17;;;;;;;2.60;2.20;;;;;;;0.92;82.35;98462.17;106716;1254;60085;-78
2023/03/12 10:02:52;;;;;;;4.10;2.60;;;;;;;0.96;81.44;98465.80;106866;1254;73791;-76
2023/03/12 10:05:46;;;;;;;2.50;2.00;;;;;;;0.98;80.90;98468.88;106927;1259;69330;-79
2023/03/12 10:08:37;;;;;;;4.50;2.50;;;;;;;0.98;80.24;98479.02;106767;1260;73233;-77
2023/03/12 10:11:07;;;;;;;3.80;3.30;;;;;;;0.96;80.80;98480.14;106390;1260;61378;-80
2023/03/12 10:13:46;;;;;;;4.00;2.70;;;;;;;0.96;80.89;98485.79;106378;1259;61259;-77
2023/03/12 10:16:23;;;;;;;3.20;1.90;;;;;;;0.98;81.08;98495.70;106130;1261;72256;-78
2023/03/12 10:19:08;;;;;;;2.40;1.90;;;;;;;1.01;79.44;98509.90;106656;1258;69811;-80
2023/03/12 10:22:05;;;;;;;3.00;2.10;;;;;;;1.06;78.74;98534.28;106668;1260;71284;-75
2023/03/12 10:24:44;;;;;;;2.10;1.80;;;;;;;1.08;78.34;98524.86;106575;1254;59657;-76
2023/03/12 10:27:14;;;;;;;3.50;1.90;;;;;;;1.09;78.98;98518.70;106609;1254;62071;-73
2023/03/12 10:29:45;;;;;;;2.60;2.10;;;;;;;1.09;79.37;98521.96;106624;1255;72627;-73
2023/03/12 10:32:16;;;;;;;3.40;2.20;;;;;;;1.10;79.27;98531.16;106334;1260;68067;-75
2023/03/12 10:34:46;;;;;;;3.40;2.30;;;;;;;1.12;79.08;98531.50;106479;1255;72622;-75
2023/03/12 10:37:22;;;;;;;2.40;2.10;;;;;;;1.15;79.42;98529.23;106539;1254;62759;-77
2023/03/12 10:39:54;;;;;;;1.60;1.50;;;;;;;1.21;79.27;98542.34;106252;1260;62732;-81
2023/03/12 10:42:24;;;;;;;2.60;2.10;;;;;;;1.27;80.15;98527.81;106236;1254;73142;-74
2023/03/12 10:44:56;;;;;;;2.20;1.90;;;;;;;1.35;80.56;98521.87;106427;1254;68551;-75
2023/03/12 10:47:42;;;;;;;7.30;3.80;;;;;;;1.39;79.27;98527.61;106295;1259;73690;-74
2023/03/12 10:50:22;;;;;;;2.40;2.20;;;;;;;1.43;78.85;98547.18;106489;1259;59666;-76
2023/03/12 10:52:52;;;;;;;6.90;2.30;;;;;;;1.43;78.43;98526.70;106581;1257;59536;-77
2023/03/12 10:55:28;;;;;;;2.80;2.10;;;;;;;1.47;79.94;98527.98;106515;1254;72976;-78
2023/03/12 10:57:58;;;;;;;2.60;2.10;;;;;;;1.49;80.98;98525.55;106891;1260;66786;-76
2023/03/12 11:00:31;;;;;;;1.80;1.70;;;;;;;1.51;80.17;98547.02;106270;1254;74526;-75
2023/03/12 11:03:03;;;;;;;6.40;4.30;;;;;;;1.52;79.41;98547.25;106213;1260;62285;-78
2023/03/12 11:05:47;;;;;;;3.90;2.00;;;;;;;1.56;79.80;98542.16;106755;1254;62196;-86
2023/03/12 11:08:31;;;;;;;3.30;1.80;;;;;;;1.57;79.43;98550.22;106526;1254;74922;-79
2023/03/12 11:11:00;;;;;;;;;;;;;;;1.58;79.93;98544.88;106120;1260;67864;-81
2023/03/12 11:13:36;;;;;;;2.50;2.30;;;;;;;1.59;79.49;98554.66;106235;1260;74551;-78
2023/03/12 11:16:23;;;;;;;3.40;1.80;;;;;;;1.57;78.96;98557.64;106382;1267;63005;-79
2023/03/12 11:19:02;;;;;;;2.60;2.40;;;;;;;1.54;78.07;98556.42;105930;1264;61392;-80
2023/03/12 11:21:35;;;;;;;2.90;2.60;;;;;;;1.53;78.48;98562.60;106266;1263;73603;-83
2023/03/12 11:24:11;;;;;;;2.80;2.40;;;;;;;1.56;79.33;98561.88;106193;1262;68737;-78
2023/03/12 11:26:46;;;;;;;6.10;2.10;;;;;;;1.60;80.45;98572.96;106163;1254;73695;-79
2023/03/12 11:29:25;;;;;;;3.20;2.40;;;;;;;1.63;81.49;98566.02;106232;1254;60304;-78
2023/03/12 11:31:56;;;;;;;3.60;2.40;;;;;;;1.64;81.37;98589.76;106341;1254;60671;-80
2023/03/12 11:34:30;;;;;;;3.50;2.60;;;;;;;1.65;79.61;98589.02;106081;1255;74804;-85
2023/03/12 11:37:27;;;;;;;3.60;3.10;;;;;;;1.67;79.31;98589.20;105776;1261;69826;-77
2023/03/12 11:40:16;;;;;;;3.50;2.40;;;;;;;1.74;79.26;98589.13;106065;1259;72821;-78
2023/03/12 11:43:32;;;;;;;4.00;2.20;;;;;;;1.83;79.96;98591.84;106000;1259;60205;-77
